.
WxDataArchive / Data Records for 2007-06-12
2007-06-11 June 2007 2007-06-13

Data Records for Tuesday, 12 June 2007

Time	Temp	Chill	HIndex	Humid	Dewpt	 Wind 	HiWind	WindDir	Rain 	Barom 
-----	----	-----	------	-----	-----	------	------	-------	-----	----- 
00:00	65.5	65.5	65.5	69	55.1	0	0	---	0.00	30.077 
00:05	65.3	65.3	65.3	70	55.3	0	0	---	0.00	30.077 
00:10	65.2	65.2	65.2	71	55.6	0	0	---	0.00	30.078 
00:15	65.0	65.0	65.0	71	55.4	0	0	---	0.00	30.079 
00:20	64.8	64.8	64.8	71	55.2	0	0	---	0.00	30.080 
00:25	64.7	64.7	64.7	71	55.1	0	0	---	0.00	30.081 
00:30	64.5	64.5	64.5	72	55.3	0	0	---	0.00	30.080 
00:35	64.3	64.3	64.3	73	55.5	0	0	---	0.00	30.079 
00:40	64.0	64.0	64.0	73	55.2	0	0	---	0.00	30.081 
00:45	63.7	63.7	63.7	74	55.3	0	0	---	0.00	30.084 
00:50	63.4	63.4	63.4	75	55.3	0	0	---	0.00	30.084 
00:55	63.1	63.1	63.1	76	55.4	0	0	---	0.00	30.084 
01:00	62.9	62.9	62.9	76	55.2	0	0	---	0.00	30.084 
01:05	62.6	62.6	62.6	77	55.3	0	0	---	0.00	30.085 
01:10	62.4	62.4	62.4	77	55.1	0	0	---	0.00	30.085 
01:15	62.1	62.1	62.1	78	55.2	0	0	---	0.00	30.085 
01:20	61.8	61.8	61.8	79	55.2	0	0	---	0.00	30.085 
01:25	61.6	61.6	61.6	79	55.0	0	0	---	0.00	30.085 
01:30	61.3	61.3	61.3	80	55.1	0	0	---	0.00	30.087 
01:35	61.0	61.0	61.0	81	55.1	0	0	---	0.00	30.089 
01:40	60.9	60.9	60.9	81	55.0	0	0	---	0.00	30.089 
01:45	60.7	60.7	60.7	82	55.2	0	0	---	0.00	30.089 
01:50	60.5	60.5	60.5	82	55.0	0	0	---	0.00	30.093 
01:55	60.5	60.5	60.5	82	55.0	0	0	---	0.00	30.093 
02:00	60.4	60.4	60.4	83	55.2	0	0	---	0.00	30.092 
02:05	60.4	60.4	60.4	83	55.2	0	0	---	0.00	30.090 
02:10	60.2	60.2	60.2	83	55.0	0	0	---	0.00	30.090 
02:15	59.9	59.9	59.9	84	55.0	0	0	---	0.00	30.089 
02:20	59.8	59.8	59.8	84	55.0	0	0	---	0.00	30.090 
02:25	59.6	59.6	59.6	84	54.8	0	0	---	0.00	30.091 
02:30	59.5	59.5	59.5	84	54.7	0	0	---	0.00	30.091 
02:35	59.3	59.3	59.3	85	54.8	0	0	---	0.00	30.093 
02:40	59.2	59.2	59.2	85	54.7	0	0	---	0.00	30.091 
02:45	59.0	59.0	59.0	85	54.5	0	0	---	0.00	30.091 
02:50	58.9	58.9	58.9	85	54.4	0	0	---	0.00	30.093 
02:55	58.9	58.9	58.9	85	54.4	0	0	---	0.00	30.092 
03:00	58.9	58.9	58.9	84	54.1	0	0	---	0.00	30.092 
03:05	58.9	58.9	58.9	84	54.1	0	0	---	0.00	30.093 
03:10	58.9	58.9	58.9	84	54.1	0	0	---	0.00	30.093 
03:15	58.7	58.7	58.7	84	53.9	0	0	---	0.00	30.094 
03:20	58.7	58.7	58.7	84	53.9	0	0	---	0.00	30.096 
03:25	58.6	58.6	58.6	85	54.1	0	0	---	0.00	30.097 
03:30	58.4	58.4	58.4	85	53.9	0	0	---	0.00	30.099 
03:35	58.3	58.3	58.3	85	53.8	0	0	---	0.00	30.098 
03:40	58.1	58.1	58.1	85	53.6	0	0	---	0.00	30.099 
03:45	57.8	57.8	57.8	86	53.6	0	0	---	0.00	30.101 
03:50	57.6	57.6	57.6	86	53.4	0	0	---	0.00	30.103 
03:55	57.3	57.3	57.3	87	53.5	0	0	---	0.00	30.105 
04:00	57.2	57.2	57.2	88	53.7	0	0	---	0.00	30.106 
04:05	57.0	57.0	57.0	88	53.5	0	0	---	0.00	30.110 
04:10	56.9	56.9	56.9	88	53.4	0	0	---	0.00	30.113 
04:15	56.9	56.9	56.9	89	53.7	0	1	90	0.00	30.114 
04:20	57.0	57.0	57.0	88	53.5	0	0	---	0.00	30.114 
04:25	57.0	57.0	57.0	88	53.5	0	0	---	0.00	30.114 
04:30	57.0	57.0	57.0	88	53.5	0	0	---	0.00	30.114 
04:35	57.0	57.0	57.0	88	53.5	0	0	---	0.00	30.115 
04:40	57.0	57.0	57.0	88	53.5	0	0	---	0.00	30.117 
04:45	57.0	57.0	57.0	88	53.5	0	0	---	0.00	30.119 
04:50	57.0	57.0	57.0	88	53.5	0	0	---	0.00	30.120 
04:55	57.0	57.0	57.0	88	53.5	0	0	---	0.00	30.122 
05:00	57.0	57.0	57.0	88	53.5	0	0	---	0.00	30.125 
05:05	57.0	57.0	57.0	88	53.5	0	0	---	0.00	30.132 
05:10	56.9	56.9	56.9	88	53.4	0	0	---	0.00	30.133 
05:15	56.7	56.7	56.7	88	53.2	0	0	---	0.00	30.134 
05:20	56.7	56.7	56.7	88	53.2	0	0	---	0.00	30.138 
05:25	56.7	56.7	56.7	88	53.2	0	0	---	0.00	30.139 
05:30	56.6	56.6	56.6	88	53.1	0	0	---	0.00	30.139 
05:35	56.6	56.6	56.6	88	53.1	0	0	---	0.00	30.140 
05:40	56.6	56.6	56.6	88	53.1	0	0	---	0.00	30.142 
05:45	56.7	56.7	56.7	88	53.2	0	0	---	0.00	30.143 
05:50	56.7	56.7	56.7	87	52.9	0	0	---	0.00	30.143 
05:55	56.9	56.9	56.9	87	53.1	0	0	---	0.00	30.141 
06:00	57.2	57.2	57.2	86	53.0	0	0	---	0.00	30.141 
06:05	57.5	57.5	57.5	85	53.0	0	1	90	0.00	30.145 
06:10	58.0	58.0	58.0	82	52.5	0	0	---	0.00	30.145 
06:15	58.7	58.7	58.7	80	52.5	0	1	90	0.00	30.144 
06:20	59.3	59.3	59.3	78	52.4	0	1	90	0.00	30.146 
06:25	60.2	60.2	60.2	75	52.2	0	1	90	0.00	30.146 
06:30	61.2	61.2	61.2	74	52.8	0	1	90	0.00	30.145 
06:35	62.1	62.1	62.1	72	53.0	0	2	90	0.00	30.146 
06:40	63.1	63.1	63.1	70	53.2	0	1	90	0.00	30.144 
06:45	63.7	63.7	63.7	69	53.3	0	0	---	0.00	30.143 
06:50	64.3	64.3	64.3	68	53.5	0	0	---	0.00	30.143 
06:55	65.0	65.0	65.0	65	52.9	0	1	90	0.00	30.143 
07:00	65.6	65.6	65.6	62	52.2	0	2	90	0.00	30.144 
07:05	66.1	66.1	66.1	62	52.7	0	2	90	0.00	30.146 
07:10	66.3	66.3	66.3	63	53.3	0	1	112	0.00	30.145 
07:15	66.9	66.9	66.9	62	53.4	0	1	112	0.00	30.142 
07:20	67.6	67.6	67.6	58	52.3	0	2	112	0.00	30.143 
07:25	68.4	68.4	68.4	59	53.5	0	1	112	0.00	30.143 
07:30	69.1	69.1	69.1	57	53.2	0	3	112	0.00	30.142 
07:35	69.1	69.1	69.1	58	53.7	0	1	112	0.00	30.141 
07:40	69.9	69.9	69.9	54	52.5	1	3	112	0.00	30.142 
07:45	70.4	70.4	70.4	55	53.4	1	3	112	0.00	30.141 
07:50	70.9	70.9	70.9	55	53.9	0	1	112	0.00	30.139 
07:55	71.6	71.6	71.6	55	54.6	1	2	112	0.00	30.137 
08:00	72.0	72.0	72.0	51	52.9	1	4	112	0.00	30.137 
08:05	72.3	72.3	72.3	56	55.7	1	3	112	0.00	30.137 
08:10	72.7	72.7	72.7	54	55.1	0	3	112	0.00	30.138 
08:15	73.2	73.2	73.2	50	53.4	0	2	112	0.00	30.138 
08:20	73.5	73.5	73.5	50	53.7	0	2	112	0.00	30.140 
08:25	73.9	73.9	73.9	47	52.4	0	2	112	0.00	30.137 
08:30	74.4	74.4	74.4	50	54.5	1	2	112	0.00	30.137 
08:35	74.6	74.6	74.6	50	54.7	1	3	112	0.00	30.137 
08:40	74.4	74.4	74.4	46	52.3	1	3	112	0.00	30.136 
08:45	74.7	74.7	74.7	49	54.3	1	3	112	0.00	30.136 
08:50	74.9	74.9	74.9	47	53.3	1	4	112	0.00	30.136 
08:55	75.3	75.3	77.7	46	53.1	1	3	112	0.00	30.136 
09:00	75.4	75.4	77.7	44	52.0	1	3	112	0.00	30.136 
09:05	75.6	75.6	77.9	48	54.5	0	2	112	0.00	30.135 
09:10	76.0	76.0	78.0	44	52.5	0	2	112	0.00	30.136 
09:15	75.8	75.8	77.9	46	53.5	0	3	292	0.00	30.136 
09:20	76.0	76.0	78.0	46	53.7	0	2	45	0.00	30.136 
09:25	76.3	76.3	78.0	42	51.5	1	5	90	0.00	30.136 
09:30	77.0	77.0	78.4	45	54.0	1	4	90	0.00	30.133 
09:35	77.4	77.4	78.7	46	55.0	1	4	112	0.00	30.133 
09:40	77.4	77.4	78.6	43	53.1	0	2	112	0.00	30.133 
09:45	77.0	77.0	78.4	43	52.8	0	3	22	0.00	30.132 
09:50	77.2	77.2	78.4	41	51.7	1	3	22	0.00	30.131 
09:55	77.9	77.9	78.8	42	52.9	1	3	45	0.00	30.130 
10:00	78.5	78.5	79.0	40	52.1	2	4	112	0.00	30.130 
10:05	78.8	78.8	79.1	39	51.7	1	3	112	0.00	30.132 
10:10	78.8	78.8	79.2	40	52.4	3	5	90	0.00	30.132 
10:15	78.8	78.8	79.4	43	54.4	0	3	112	0.00	30.133 
10:20	79.2	79.2	79.5	42	54.1	1	3	90	0.00	30.133 
10:25	79.6	79.6	79.6	39	52.4	1	3	90	0.00	30.132 
10:30	79.8	79.8	80.2	45	56.5	2	6	90	0.00	30.131 
10:35	79.9	79.9	79.9	40	53.4	2	6	90	0.00	30.130 
10:40	79.9	79.9	79.7	38	52.0	2	4	112	0.00	30.131 
10:45	80.1	80.1	80.2	42	54.9	1	3	90	0.00	30.133 
10:50	80.3	80.3	80.0	38	52.4	2	7	90	0.00	30.132 
10:55	80.1	80.1	80.0	40	53.6	2	7	112	0.00	30.132 
11:00	80.7	80.7	80.6	42	55.4	1	5	112	0.00	30.132 
11:05	80.7	80.7	80.5	41	54.8	1	4	292	0.00	30.132 
11:10	80.9	80.9	80.9	43	56.3	2	4	135	0.00	30.132 
11:15	81.1	81.1	81.1	44	57.1	1	5	45	0.00	30.131 
11:20	81.2	81.2	80.8	40	54.6	2	6	135	0.00	30.130 
11:25	81.1	81.1	80.4	37	52.3	2	6	90	0.00	30.131 
11:30	81.1	81.1	80.8	41	55.1	2	3	90	0.00	30.128 
11:35	81.2	81.2	81.0	42	55.9	1	5	68	0.00	30.129 
11:40	81.4	81.4	80.6	36	51.9	1	5	112	0.00	30.129 
11:45	81.6	81.6	80.8	37	52.8	2	5	112	0.00	30.127 
11:50	81.4	81.4	81.0	40	54.7	2	5	112	0.00	30.128 
11:55	81.4	81.4	80.5	35	51.1	3	6	90	0.00	30.125 
12:00	81.2	81.2	80.6	38	53.1	4	7	112	0.00	30.127 
12:05	81.6	81.6	80.9	38	53.5	3	7	112	0.00	30.130 
12:10	81.8	81.8	80.8	35	51.4	3	7	112	0.00	30.132 
12:15	81.6	81.6	80.7	36	52.0	4	9	112	0.00	30.128 
12:20	81.8	81.8	80.7	34	50.7	4	9	112	0.00	30.128 
12:25	82.2	82.2	81.1	35	51.8	3	7	90	0.00	30.128 
12:30	82.2	82.2	81.2	36	52.6	4	10	112	0.00	30.127 
12:35	81.8	81.8	80.8	35	51.4	4	7	112	0.00	30.124 
12:40	82.0	82.0	81.1	37	53.1	3	6	112	0.00	30.120 
12:45	82.6	82.6	81.4	35	52.1	2	7	112	0.00	30.119 
12:50	82.6	82.6	81.2	33	50.6	4	12	112	0.00	30.118 
12:55	82.6	82.6	81.2	33	50.6	3	8	112	0.00	30.118 
13:00	82.4	82.4	81.3	36	52.7	3	5	90	0.00	30.117 
13:05	83.0	83.0	82.2	39	55.5	3	9	90	0.00	30.118 
13:10	83.2	83.2	81.9	35	52.7	3	7	90	0.00	30.116 
13:15	83.2	83.2	82.1	37	54.2	4	8	90	0.00	30.118 
13:20	83.2	83.2	81.9	35	52.7	4	10	112	0.00	30.116 
13:25	83.0	83.0	81.7	35	52.5	4	7	90	0.00	30.115 
13:30	83.2	83.2	81.5	31	49.4	3	7	90	0.00	30.116 
13:35	83.0	83.0	81.4	32	50.1	5	10	90	0.00	30.115 
13:40	83.0	83.0	81.7	35	52.5	5	11	90	0.00	30.116 
13:45	83.4	83.4	81.7	32	50.4	4	12	90	0.00	30.111 
13:50	83.6	83.6	82.2	35	53.0	4	11	90	0.00	30.108 
13:55	83.6	83.6	82.1	34	52.2	4	11	90	0.00	30.105 
14:00	83.8	83.8	82.2	33	51.6	4	10	112	0.00	30.103 
14:05	83.6	83.6	82.1	34	52.2	4	10	90	0.00	30.104 
14:10	83.8	83.8	82.4	35	53.2	3	9	112	0.00	30.103 
14:15	84.5	84.5	83.0	35	53.8	3	6	112	0.00	30.103 
14:20	84.7	84.7	82.7	31	50.7	4	13	112	0.00	30.101 
14:25	84.3	84.3	82.7	34	52.8	5	11	112	0.00	30.102 
14:30	84.1	84.1	82.4	33	51.9	4	13	112	0.00	30.102 
14:35	84.1	84.1	82.5	34	52.7	3	7	90	0.00	30.100 
14:40	84.3	84.3	83.0	36	54.4	4	10	90	0.00	30.102 
14:45	84.7	84.7	83.4	36	54.8	4	10	90	0.00	30.100 
14:50	84.7	84.7	83.1	34	53.2	4	12	90	0.00	30.097 
14:55	84.9	84.9	83.6	36	54.9	4	9	112	0.00	30.092 
15:00	84.5	84.5	83.0	35	53.8	4	10	90	0.00	30.091 
15:05	84.5	84.5	82.9	34	53.0	5	10	90	0.00	30.093 
15:10	84.7	84.7	83.1	34	53.2	2	5	112	0.00	30.089 
15:15	84.7	84.7	83.4	36	54.8	3	7	90	0.00	30.088 
15:20	85.1	85.1	84.3	39	57.3	2	4	90	0.00	30.086 
15:25	85.3	85.3	84.0	36	55.3	2	6	90	0.00	30.086 
15:30	85.3	85.3	83.5	33	52.9	3	10	90	0.00	30.085 
15:35	85.3	85.3	83.8	35	54.5	3	7	135	0.00	30.086 
15:40	85.5	85.5	84.2	36	55.5	1	5	112	0.00	30.086 
15:45	85.7	85.7	84.0	34	54.1	1	6	90	0.00	30.087 
15:50	85.3	85.3	83.2	31	51.2	3	10	90	0.00	30.087 
15:55	84.7	84.7	83.5	37	55.5	2	5	112	0.00	30.086 
16:00	84.9	84.9	83.3	34	53.4	3	5	90	0.00	30.084 
16:05	85.3	85.3	83.4	32	52.1	2	5	112	0.00	30.081 
16:10	85.5	85.5	83.7	33	53.1	3	6	112	0.00	30.078 
16:15	85.5	85.5	84.2	36	55.5	2	6	112	0.00	30.076 
16:20	85.3	85.3	83.4	32	52.1	3	6	90	0.00	30.078 
16:25	85.3	85.3	83.1	30	50.3	2	7	90	0.00	30.074 
16:30	85.1	85.1	83.2	32	51.9	3	10	90	0.00	30.072 
16:35	85.1	85.1	83.1	31	51.0	3	9	90	0.00	30.071 
16:40	84.7	84.7	83.4	36	54.8	3	11	90	0.00	30.070 
16:45	84.5	84.5	83.0	35	53.8	1	6	112	0.00	30.066 
16:50	84.7	84.7	83.1	34	53.2	2	6	112	0.00	30.067 
16:55	84.9	84.9	83.0	32	51.7	2	7	135	0.00	30.066 
17:00	84.7	84.7	83.0	33	52.4	3	11	112	0.00	30.063 
17:05	84.7	84.7	83.1	34	53.2	3	7	135	0.00	30.061 
17:10	84.3	84.3	82.7	34	52.8	2	8	112	0.00	30.062 
17:15	84.3	84.3	82.6	33	52.0	3	8	112	0.00	30.060 
17:20	84.1	84.1	82.4	33	51.9	2	7	90	0.00	30.059 
17:25	84.3	84.3	82.7	34	52.8	3	8	112	0.00	30.059 
17:30	84.3	84.3	82.9	35	53.6	2	10	112	0.00	30.058 
17:35	83.8	83.8	82.4	35	53.2	2	6	112	0.00	30.058 
17:40	83.6	83.6	82.5	37	54.5	2	6	112	0.00	30.057 
17:45	83.6	83.6	82.1	34	52.2	2	6	112	0.00	30.057 
17:50	83.8	83.8	82.5	36	54.0	2	5	90	0.00	30.056 
17:55	83.6	83.6	82.4	36	53.8	2	7	90	0.00	30.055 
18:00	83.2	83.2	81.9	35	52.7	2	6	90	0.00	30.056 
18:05	82.8	82.8	81.7	36	53.1	2	8	112	0.00	30.049 
18:10	82.8	82.8	81.7	36	53.1	1	2	112	0.00	30.047 
18:15	82.8	82.8	81.7	36	53.1	1	5	112	0.00	30.042 
18:20	82.8	82.8	81.6	35	52.3	3	8	90	0.00	30.043 
18:25	82.6	82.6	81.4	35	52.1	2	6	112	0.00	30.044 
18:30	82.6	82.6	81.5	36	52.9	3	6	112	0.00	30.043 
18:35	82.6	82.6	81.5	36	52.9	2	5	90	0.00	30.043 
18:40	82.4	82.4	81.4	37	53.5	1	3	68	0.00	30.041 
18:45	82.0	82.0	81.2	38	53.9	1	3	90	0.00	30.039 
18:50	81.8	81.8	81.2	39	54.4	1	3	90	0.00	30.040 
18:55	81.6	81.6	81.1	40	54.9	0	1	90	0.00	30.042 
19:00	81.4	81.4	80.9	39	54.0	0	2	90	0.00	30.043 
19:05	81.2	81.2	80.7	39	53.9	1	3	90	0.00	30.036 
19:10	81.1	81.1	80.7	40	54.5	1	4	90	0.00	30.035 
19:15	80.9	80.9	80.7	41	55.0	0	2	90	0.00	30.034 
19:20	80.7	80.7	80.6	42	55.4	0	3	112	0.00	30.035 
19:25	80.3	80.3	80.4	43	55.7	0	1	112	0.00	30.034 
19:30	79.9	79.9	80.1	43	55.4	0	1	112	0.00	30.033 
19:35	79.6	79.6	79.9	43	55.1	0	0	---	0.00	30.034 
19:40	79.2	79.2	79.7	44	55.4	0	0	---	0.00	30.038 
19:45	78.8	78.8	79.4	43	54.4	0	1	112	0.00	30.038 
19:50	78.6	78.6	79.2	43	54.2	1	2	90	0.00	30.036 
19:55	78.5	78.5	79.2	43	54.1	0	2	90	0.00	30.036 
20:00	78.3	78.3	79.1	44	54.6	0	1	90	0.00	30.037 
20:05	78.1	78.1	78.9	43	53.8	1	3	90	0.00	30.034 
20:10	77.7	77.7	78.8	44	54.0	0	2	68	0.00	30.032 
20:15	77.4	77.4	78.6	45	54.4	0	1	68	0.00	30.032 
20:20	76.8	76.8	78.4	46	54.4	0	0	---	0.00	30.031 
20:25	76.3	76.3	78.1	46	54.0	0	0	---	0.00	30.031 
20:30	75.8	75.8	77.9	47	54.1	0	0	---	0.00	30.033 
20:35	75.3	75.3	77.7	49	54.8	0	0	---	0.00	30.032 
20:40	74.7	74.7	74.7	50	54.8	0	0	---	0.00	30.031 
20:45	74.0	74.0	74.0	51	54.7	0	0	---	0.00	30.033 
20:50	73.5	73.5	73.5	52	54.8	0	0	---	0.00	30.033 
20:55	73.0	73.0	73.0	54	55.4	0	0	---	0.00	30.032 
21:00	72.7	72.7	72.7	55	55.6	0	0	---	0.00	30.033 
21:05	72.1	72.1	72.1	56	55.5	0	0	---	0.00	30.032 
21:10	71.8	71.8	71.8	58	56.2	0	0	---	0.00	30.033 
21:15	71.3	71.3	71.3	59	56.2	0	0	---	0.00	30.037 
21:20	70.9	70.9	70.9	60	56.3	0	0	---	0.00	30.041 
21:25	70.6	70.6	70.6	60	56.0	0	0	---	0.00	30.042 
21:30	70.3	70.3	70.3	62	56.7	0	0	---	0.00	30.046 
21:35	69.8	69.8	69.8	62	56.2	0	0	---	0.00	30.048 
21:40	69.6	69.6	69.6	63	56.4	0	0	---	0.00	30.048 
21:45	69.1	69.1	69.1	64	56.4	0	0	---	0.00	30.049 
21:50	68.8	68.8	68.8	65	56.5	0	0	---	0.00	30.051 
21:55	68.4	68.4	68.4	65	56.2	0	0	---	0.00	30.055 
22:00	68.3	68.3	68.3	67	56.9	0	0	---	0.00	30.059 
22:05	67.9	67.9	67.9	67	56.5	0	0	---	0.00	30.058 
22:10	67.8	67.8	67.8	67	56.4	0	0	---	0.00	30.058 
22:15	67.6	67.6	67.6	68	56.7	0	0	---	0.00	30.059 
22:20	67.3	67.3	67.3	69	56.8	0	0	---	0.00	30.060 
22:25	66.9	66.9	66.9	69	56.4	0	0	---	0.00	30.058 
22:30	66.8	66.8	66.8	70	56.7	0	0	---	0.00	30.055 
22:35	66.6	66.6	66.6	71	56.9	0	0	---	0.00	30.055 
22:40	66.4	66.4	66.4	72	57.1	0	0	---	0.00	30.059 
22:45	66.3	66.3	66.3	71	56.6	0	0	---	0.00	30.053 
22:50	66.3	66.3	66.3	72	57.0	0	0	---	0.00	30.053 
22:55	66.1	66.1	66.1	72	56.8	0	0	---	0.00	30.052 
23:00	66.0	66.0	66.0	73	57.1	0	0	---	0.00	30.052 
23:05	65.6	65.6	65.6	73	56.7	0	0	---	0.00	30.051 
23:10	65.6	65.6	65.6	74	57.1	0	0	---	0.00	30.051 
23:15	65.3	65.3	65.3	75	57.2	0	0	---	0.00	30.054 
23:20	65.2	65.2	65.2	75	57.1	0	0	---	0.00	30.054 
23:25	65.2	65.2	65.2	76	57.4	0	0	---	0.00	30.056 
23:30	65.0	65.0	65.0	76	57.2	0	0	---	0.00	30.059 
23:35	64.7	64.7	64.7	76	57.0	0	0	---	0.00	30.059 
23:40	64.5	64.5	64.5	76	56.8	0	0	---	0.00	30.060 
23:45	64.5	64.5	64.5	75	56.4	0	0	---	0.00	30.064 
23:50	64.3	64.3	64.3	75	56.2	0	0	---	0.00	30.064 
23:55	64.3	64.3	64.3	75	56.2	0	0	---	0.00	30.066 

CoCoRaHS
IN-AL-39
A2 Web Hosting
Creative Commons License
GoDaddy
Look for:

loaded 2017-12-12 16:49:10 • last modified 2010-11-18 10:43:29
Privacy PolicyDisclaimer
• wx.awcolley.com is powered by PmWiki v.2002016 •
• all content (unless otherwise noted) © 2017 A W Colley